Terminal Aerodrome Forecast
Issued by NWS Charleston, WV

Home | Current Version | Previous Version | Text Only | Print | Product List | Glossary On
Versions: 1 2 3 4 5 6 7 8 9 10 11 12 13 14 15 16 17 18 19 20 21 22 23 24
000
FTUS41 KRLX 281100
TAFEKN
TAF
KEKN 281137Z 2812/2912 00000KT 5SM BR BKN015
      TEMPO 2812/2814 6SM BR BKN025
     FM281400 33003KT P6SM BKN025
      TEMPO 2814/2816 SCT025
     FM281600 VRB03KT P6SM SCT035
     FM290200 00000KT P6SM FEW200
     FM290500 00000KT 5SM BR FEW200
     FM290800 00000KT 2SM BR SCT001
     FM290900 00000KT 1/2SM FG BKN001=

USA.gov is the U.S. government's official web portal to all federal, state and local government web resources and services.